sensor_id;sensor_type;location;lat;lon;timestamp;P1;durP1;ratioP1;P2;durP2;ratioP2
50739;SDS011;36704;52.524;17.580;2023-08-24T00:00:18;6.38;;;4.00;;
50739;SDS011;36704;52.524;17.580;2023-08-24T00:03:24;8.68;;;4.72;;
50739;SDS011;36704;52.524;17.580;2023-08-24T00:06:10;11.93;;;7.45;;
50739;SDS011;36704;52.524;17.580;2023-08-24T00:08:57;8.90;;;5.32;;
50739;SDS011;36704;52.524;17.580;2023-08-24T00:11:43;8.20;;;3.83;;
50739;SDS011;36704;52.524;17.580;2023-08-24T00:14:30;7.25;;;4.47;;
50739;SDS011;36704;52.524;17.580;2023-08-24T00:17:20;7.32;;;3.85;;
50739;SDS011;36704;52.524;17.580;2023-08-24T00:20:06;6.90;;;3.67;;
50739;SDS011;36704;52.524;17.580;2023-08-24T00:22:57;6.07;;;3.88;;
50739;SDS011;36704;52.524;17.580;2023-08-24T00:25:44;6.80;;;4.07;;
50739;SDS011;36704;52.524;17.580;2023-08-24T00:28:30;6.00;;;3.95;;
50739;SDS011;36704;52.524;17.580;2023-08-24T00:31:16;7.72;;;4.07;;
50739;SDS011;36704;52.524;17.580;2023-08-24T00:34:02;5.65;;;3.97;;
50739;SDS011;36704;52.524;17.580;2023-08-24T00:36:47;6.82;;;4.18;;
50739;SDS011;36704;52.524;17.580;2023-08-24T00:39:33;7.60;;;5.15;;
50739;SDS011;36704;52.524;17.580;2023-08-24T00:42:19;9.32;;;4.40;;
50739;SDS011;36704;52.524;17.580;2023-08-24T00:45:07;4.72;;;4.18;;
50739;SDS011;36704;52.524;17.580;2023-08-24T00:47:54;7.60;;;5.20;;
50739;SDS011;36704;52.524;17.580;2023-08-24T00:50:41;8.40;;;5.30;;
50739;SDS011;36704;52.524;17.580;2023-08-24T00:53:27;8.57;;;4.50;;
50739;SDS011;36704;52.524;17.580;2023-08-24T00:56:14;8.55;;;4.38;;
50739;SDS011;36704;52.524;17.580;2023-08-24T00:58:59;10.23;;;5.50;;
50739;SDS011;36704;52.524;17.580;2023-08-24T01:01:46;7.72;;;4.95;;
50739;SDS011;36704;52.524;17.580;2023-08-24T01:04:32;7.40;;;4.75;;
50739;SDS011;36704;52.524;17.580;2023-08-24T01:07:20;8.18;;;4.78;;
50739;SDS011;36704;52.524;17.580;2023-08-24T01:10:06;4.88;;;4.22;;
50739;SDS011;36704;52.524;17.580;2023-08-24T01:15:55;11.75;;;4.80;;
50739;SDS011;36704;52.524;17.580;2023-08-24T01:18:47;7.57;;;4.72;;
50739;SDS011;36704;52.524;17.580;2023-08-24T01:21:34;7.70;;;4.35;;
50739;SDS011;36704;52.524;17.580;2023-08-24T01:24:44;8.60;;;5.05;;
50739;SDS011;36704;52.524;17.580;2023-08-24T01:27:31;7.93;;;4.55;;
50739;SDS011;36704;52.524;17.580;2023-08-24T01:30:21;6.78;;;5.03;;
50739;SDS011;36704;52.524;17.580;2023-08-24T01:33:07;7.32;;;4.97;;
50739;SDS011;36704;52.524;17.580;2023-08-24T01:35:58;7.88;;;5.05;;
50739;SDS011;36704;52.524;17.580;2023-08-24T01:38:52;5.68;;;4.50;;
50739;SDS011;36704;52.524;17.580;2023-08-24T01:41:43;7.50;;;4.88;;
50739;SDS011;36704;52.524;17.580;2023-08-24T01:44:33;11.40;;;5.05;;
50739;SDS011;36704;52.524;17.580;2023-08-24T01:47:21;8.98;;;4.63;;
50739;SDS011;36704;52.524;17.580;2023-08-24T01:50:08;8.55;;;4.75;;
50739;SDS011;36704;52.524;17.580;2023-08-24T01:52:55;7.20;;;4.60;;
50739;SDS011;36704;52.524;17.580;2023-08-24T01:55:47;5.18;;;4.13;;
50739;SDS011;36704;52.524;17.580;2023-08-24T01:58:33;6.15;;;4.47;;
50739;SDS011;36704;52.524;17.580;2023-08-24T02:01:18;8.38;;;4.70;;
50739;SDS011;36704;52.524;17.580;2023-08-24T02:04:05;6.38;;;4.28;;
50739;SDS011;36704;52.524;17.580;2023-08-24T02:06:50;4.88;;;4.15;;
50739;SDS011;36704;52.524;17.580;2023-08-24T02:09:37;8.68;;;5.10;;
50739;SDS011;36704;52.524;17.580;2023-08-24T02:12:23;7.05;;;4.35;;
50739;SDS011;36704;52.524;17.580;2023-08-24T02:15:09;8.45;;;4.72;;
50739;SDS011;36704;52.524;17.580;2023-08-24T02:17:55;7.15;;;4.53;;
50739;SDS011;36704;52.524;17.580;2023-08-24T02:20:41;7.18;;;4.10;;
50739;SDS011;36704;52.524;17.580;2023-08-24T02:23:27;7.05;;;4.75;;
50739;SDS011;36704;52.524;17.580;2023-08-24T02:26:12;7.18;;;4.28;;
50739;SDS011;36704;52.524;17.580;2023-08-24T02:28:58;7.55;;;4.95;;
50739;SDS011;36704;52.524;17.580;2023-08-24T02:31:44;7.78;;;4.90;;
50739;SDS011;36704;52.524;17.580;2023-08-24T02:34:33;8.80;;;5.50;;
50739;SDS011;36704;52.524;17.580;2023-08-24T02:37:19;6.63;;;4.30;;
50739;SDS011;36704;52.524;17.580;2023-08-24T02:40:05;11.88;;;5.00;;
50739;SDS011;36704;52.524;17.580;2023-08-24T02:42:51;5.68;;;4.18;;
50739;SDS011;36704;52.524;17.580;2023-08-24T02:45:37;12.38;;;5.25;;
50739;SDS011;36704;52.524;17.580;2023-08-24T02:48:23;5.97;;;4.47;;
50739;SDS011;36704;52.524;17.580;2023-08-24T02:51:09;9.50;;;4.43;;
50739;SDS011;36704;52.524;17.580;2023-08-24T02:54:00;7.82;;;4.97;;
50739;SDS011;36704;52.524;17.580;2023-08-24T02:56:46;5.32;;;4.50;;
50739;SDS011;36704;52.524;17.580;2023-08-24T02:59:32;7.45;;;4.95;;
50739;SDS011;36704;52.524;17.580;2023-08-24T03:02:18;6.85;;;4.78;;
50739;SDS011;36704;52.524;17.580;2023-08-24T03:05:07;6.75;;;4.57;;
50739;SDS011;36704;52.524;17.580;2023-08-24T03:07:53;7.55;;;5.18;;
50739;SDS011;36704;52.524;17.580;2023-08-24T03:10:39;8.65;;;5.95;;
50739;SDS011;36704;52.524;17.580;2023-08-24T03:13:25;6.97;;;5.10;;
50739;SDS011;36704;52.524;17.580;2023-08-24T03:16:12;7.43;;;5.15;;
50739;SDS011;36704;52.524;17.580;2023-08-24T03:18:59;8.18;;;5.50;;
50739;SDS011;36704;52.524;17.580;2023-08-24T03:21:45;9.10;;;5.95;;
50739;SDS011;36704;52.524;17.580;2023-08-24T03:24:31;5.78;;;4.15;;
50739;SDS011;36704;52.524;17.580;2023-08-24T03:27:19;10.35;;;4.93;;
50739;SDS011;36704;52.524;17.580;2023-08-24T03:30:05;8.57;;;5.30;;
50739;SDS011;36704;52.524;17.580;2023-08-24T03:32:52;8.07;;;5.35;;
50739;SDS011;36704;52.524;17.580;2023-08-24T03:35:37;11.18;;;5.95;;
50739;SDS011;36704;52.524;17.580;2023-08-24T03:38:23;9.38;;;4.93;;
50739;SDS011;36704;52.524;17.580;2023-08-24T03:41:10;9.60;;;5.50;;
50739;SDS011;36704;52.524;17.580;2023-08-24T03:43:57;7.32;;;4.78;;
50739;SDS011;36704;52.524;17.580;2023-08-24T03:46:43;9.77;;;5.10;;
50739;SDS011;36704;52.524;17.580;2023-08-24T03:49:30;9.68;;;5.22;;
50739;SDS011;36704;52.524;17.580;2023-08-24T03:52:25;7.85;;;5.15;;
50739;SDS011;36704;52.524;17.580;2023-08-24T03:55:11;7.45;;;5.55;;
50739;SDS011;36704;52.524;17.580;2023-08-24T03:57:57;6.28;;;5.13;;
50739;SDS011;36704;52.524;17.580;2023-08-24T04:00:44;8.73;;;5.47;;
50739;SDS011;36704;52.524;17.580;2023-08-24T04:03:30;8.32;;;5.90;;
50739;SDS011;36704;52.524;17.580;2023-08-24T04:06:17;6.38;;;5.13;;
50739;SDS011;36704;52.524;17.580;2023-08-24T04:09:05;8.45;;;5.63;;
50739;SDS011;36704;52.524;17.580;2023-08-24T04:11:52;9.07;;;5.68;;
50739;SDS011;36704;52.524;17.580;2023-08-24T04:14:38;8.63;;;5.75;;
50739;SDS011;36704;52.524;17.580;2023-08-24T04:17:24;7.05;;;6.10;;
50739;SDS011;36704;52.524;17.580;2023-08-24T04:20:11;7.97;;;5.45;;
50739;SDS011;36704;52.524;17.580;2023-08-24T04:22:57;7.95;;;5.40;;
50739;SDS011;36704;52.524;17.580;2023-08-24T04:25:42;9.43;;;6.63;;
50739;SDS011;36704;52.524;17.580;2023-08-24T04:28:29;9.50;;;5.68;;
50739;SDS011;36704;52.524;17.580;2023-08-24T04:31:15;12.07;;;6.53;;
50739;SDS011;36704;52.524;17.580;2023-08-24T04:34:01;10.63;;;6.38;;
50739;SDS011;36704;52.524;17.580;2023-08-24T04:36:46;11.35;;;5.80;;
50739;SDS011;36704;52.524;17.580;2023-08-24T04:39:33;10.77;;;5.70;;
50739;SDS011;36704;52.524;17.580;2023-08-24T04:42:18;9.48;;;4.72;;
50739;SDS011;36704;52.524;17.580;2023-08-24T04:45:04;8.00;;;4.63;;
50739;SDS011;36704;52.524;17.580;2023-08-24T04:47:51;12.05;;;6.03;;
50739;SDS011;36704;52.524;17.580;2023-08-24T04:50:37;11.25;;;6.20;;
50739;SDS011;36704;52.524;17.580;2023-08-24T04:53:23;5.55;;;4.40;;
50739;SDS011;36704;52.524;17.580;2023-08-24T04:56:10;8.63;;;5.22;;
50739;SDS011;36704;52.524;17.580;2023-08-24T04:58:57;12.32;;;7.28;;
50739;SDS011;36704;52.524;17.580;2023-08-24T05:01:44;7.43;;;5.20;;
50739;SDS011;36704;52.524;17.580;2023-08-24T05:04:29;10.00;;;6.60;;
50739;SDS011;36704;52.524;17.580;2023-08-24T05:07:15;8.40;;;5.72;;
50739;SDS011;36704;52.524;17.580;2023-08-24T05:10:01;8.30;;;6.10;;
50739;SDS011;36704;52.524;17.580;2023-08-24T05:12:49;8.25;;;5.45;;
50739;SDS011;36704;52.524;17.580;2023-08-24T05:15:34;10.15;;;5.28;;
50739;SDS011;36704;52.524;17.580;2023-08-24T05:18:20;6.20;;;5.10;;
50739;SDS011;36704;52.524;17.580;2023-08-24T05:21:06;37.65;;;8.20;;
50739;SDS011;36704;52.524;17.580;2023-08-24T05:23:52;35.28;;;8.13;;
50739;SDS011;36704;52.524;17.580;2023-08-24T05:26:38;24.73;;;6.07;;
50739;SDS011;36704;52.524;17.580;2023-08-24T05:29:25;20.80;;;5.40;;
50739;SDS011;36704;52.524;17.580;2023-08-24T05:32:10;11.23;;;4.82;;
50739;SDS011;36704;52.524;17.580;2023-08-24T05:34:56;8.70;;;4.75;;
50739;SDS011;36704;52.524;17.580;2023-08-24T05:37:42;9.63;;;4.97;;
50739;SDS011;36704;52.524;17.580;2023-08-24T05:40:27;7.20;;;4.38;;
50739;SDS011;36704;52.524;17.580;2023-08-24T05:43:13;7.55;;;4.78;;
50739;SDS011;36704;52.524;17.580;2023-08-24T05:45:59;6.28;;;4.43;;
50739;SDS011;36704;52.524;17.580;2023-08-24T05:48:45;7.20;;;4.40;;
50739;SDS011;36704;52.524;17.580;2023-08-24T05:51:31;7.72;;;4.05;;
50739;SDS011;36704;52.524;17.580;2023-08-24T05:54:17;8.48;;;4.10;;
50739;SDS011;36704;52.524;17.580;2023-08-24T05:57:04;7.53;;;3.63;;
50739;SDS011;36704;52.524;17.580;2023-08-24T05:59:52;23.95;;;5.13;;
50739;SDS011;36704;52.524;17.580;2023-08-24T06:02:39;10.73;;;3.90;;
50739;SDS011;36704;52.524;17.580;2023-08-24T06:05:27;13.35;;;4.30;;
50739;SDS011;36704;52.524;17.580;2023-08-24T06:08:13;6.22;;;4.03;;
50739;SDS011;36704;52.524;17.580;2023-08-24T06:10:58;7.68;;;4.40;;
50739;SDS011;36704;52.524;17.580;2023-08-24T06:13:45;8.80;;;4.30;;
50739;SDS011;36704;52.524;17.580;2023-08-24T06:16:30;6.95;;;3.67;;
50739;SDS011;36704;52.524;17.580;2023-08-24T06:19:16;8.02;;;3.60;;
50739;SDS011;36704;52.524;17.580;2023-08-24T06:22:03;5.88;;;3.10;;
50739;SDS011;36704;52.524;17.580;2023-08-24T06:24:49;7.90;;;3.25;;
50739;SDS011;36704;52.524;17.580;2023-08-24T06:27:34;11.13;;;4.78;;
50739;SDS011;36704;52.524;17.580;2023-08-24T06:30:21;6.70;;;3.10;;
50739;SDS011;36704;52.524;17.580;2023-08-24T06:33:07;6.68;;;2.80;;
50739;SDS011;36704;52.524;17.580;2023-08-24T06:35:53;7.38;;;3.33;;
50739;SDS011;36704;52.524;17.580;2023-08-24T06:38:39;8.70;;;3.00;;
50739;SDS011;36704;52.524;17.580;2023-08-24T06:41:26;4.72;;;2.90;;
50739;SDS011;36704;52.524;17.580;2023-08-24T06:44:12;5.80;;;2.70;;
50739;SDS011;36704;52.524;17.580;2023-08-24T06:46:58;6.60;;;2.70;;
50739;SDS011;36704;52.524;17.580;2023-08-24T06:49:43;4.95;;;2.83;;
50739;SDS011;36704;52.524;17.580;2023-08-24T06:52:30;5.63;;;2.40;;
50739;SDS011;36704;52.524;17.580;2023-08-24T06:55:16;7.65;;;2.70;;
50739;SDS011;36704;52.524;17.580;2023-08-24T06:58:02;5.75;;;3.20;;
50739;SDS011;36704;52.524;17.580;2023-08-24T07:00:50;5.03;;;3.20;;
50739;SDS011;36704;52.524;17.580;2023-08-24T07:03:37;5.07;;;3.10;;
50739;SDS011;36704;52.524;17.580;2023-08-24T07:06:24;6.85;;;2.65;;
50739;SDS011;36704;52.524;17.580;2023-08-24T07:09:11;3.63;;;2.58;;
50739;SDS011;36704;52.524;17.580;2023-08-24T07:11:57;5.82;;;2.20;;
50739;SDS011;36704;52.524;17.580;2023-08-24T07:14:42;4.63;;;2.10;;
50739;SDS011;36704;52.524;17.580;2023-08-24T07:17:28;3.75;;;2.20;;
50739;SDS011;36704;52.524;17.580;2023-08-24T07:20:14;4.00;;;2.00;;
50739;SDS011;36704;52.524;17.580;2023-08-24T07:23:00;4.95;;;1.85;;
50739;SDS011;36704;52.524;17.580;2023-08-24T07:25:45;3.75;;;1.95;;
50739;SDS011;36704;52.524;17.580;2023-08-24T07:28:31;3.70;;;1.70;;
50739;SDS011;36704;52.524;17.580;2023-08-24T07:31:17;3.35;;;1.23;;
50739;SDS011;36704;52.524;17.580;2023-08-24T07:34:04;3.42;;;1.40;;
50739;SDS011;36704;52.524;17.580;2023-08-24T07:36:50;2.45;;;1.10;;
50739;SDS011;36704;52.524;17.580;2023-08-24T07:39:35;6.15;;;1.38;;
50739;SDS011;36704;52.524;17.580;2023-08-24T07:42:23;3.58;;;1.40;;
50739;SDS011;36704;52.524;17.580;2023-08-24T07:45:09;3.03;;;1.15;;
50739;SDS011;36704;52.524;17.580;2023-08-24T07:47:55;5.85;;;1.60;;
50739;SDS011;36704;52.524;17.580;2023-08-24T07:50:41;4.60;;;1.38;;
50739;SDS011;36704;52.524;17.580;2023-08-24T07:53:28;3.92;;;1.27;;
50739;SDS011;36704;52.524;17.580;2023-08-24T07:56:14;2.85;;;1.60;;
50739;SDS011;36704;52.524;17.580;2023-08-24T07:59:00;4.70;;;1.30;;
50739;SDS011;36704;52.524;17.580;2023-08-24T08:01:46;1.88;;;1.20;;
50739;SDS011;36704;52.524;17.580;2023-08-24T08:04:33;2.42;;;1.25;;
50739;SDS011;36704;52.524;17.580;2023-08-24T08:07:19;2.97;;;1.05;;
50739;SDS011;36704;52.524;17.580;2023-08-24T08:10:05;2.50;;;0.88;;
50739;SDS011;36704;52.524;17.580;2023-08-24T08:12:54;2.63;;;1.08;;
50739;SDS011;36704;52.524;17.580;2023-08-24T08:15:40;2.33;;;0.90;;
50739;SDS011;36704;52.524;17.580;2023-08-24T08:18:26;1.90;;;0.88;;
50739;SDS011;36704;52.524;17.580;2023-08-24T08:21:14;1.65;;;0.80;;
50739;SDS011;36704;52.524;17.580;2023-08-24T08:24:06;2.30;;;1.00;;
50739;SDS011;36704;52.524;17.580;2023-08-24T08:26:53;3.42;;;0.90;;
50739;SDS011;36704;52.524;17.580;2023-08-24T08:29:40;3.10;;;1.05;;
50739;SDS011;36704;52.524;17.580;2023-08-24T08:32:26;3.03;;;0.93;;
50739;SDS011;36704;52.524;17.580;2023-08-24T08:35:13;1.42;;;0.90;;
50739;SDS011;36704;52.524;17.580;2023-08-24T08:38:00;1.85;;;0.90;;
50739;SDS011;36704;52.524;17.580;2023-08-24T08:40:46;1.85;;;1.00;;
50739;SDS011;36704;52.524;17.580;2023-08-24T08:43:35;2.17;;;0.93;;
50739;SDS011;36704;52.524;17.580;2023-08-24T08:46:24;1.02;;;0.73;;
50739;SDS011;36704;52.524;17.580;2023-08-24T08:49:11;1.13;;;0.80;;
50739;SDS011;36704;52.524;17.580;2023-08-24T08:52:01;1.95;;;1.20;;
50739;SDS011;36704;52.524;17.580;2023-08-24T08:58:05;14.75;;;1.70;;
50739;SDS011;36704;52.524;17.580;2023-08-24T09:00:51;17.27;;;2.00;;
50739;SDS011;36704;52.524;17.580;2023-08-24T09:03:37;2.80;;;0.82;;
50739;SDS011;36704;52.524;17.580;2023-08-24T09:06:25;3.22;;;0.80;;
50739;SDS011;36704;52.524;17.580;2023-08-24T09:09:10;8.25;;;1.40;;
50739;SDS011;36704;52.524;17.580;2023-08-24T09:11:57;7.75;;;1.10;;
50739;SDS011;36704;52.524;17.580;2023-08-24T09:14:43;1.58;;;0.90;;
50739;SDS011;36704;52.524;17.580;2023-08-24T09:17:29;3.58;;;1.05;;
50739;SDS011;36704;52.524;17.580;2023-08-24T09:20:16;3.33;;;0.95;;
50739;SDS011;36704;52.524;17.580;2023-08-24T09:23:02;1.67;;;0.90;;
50739;SDS011;36704;52.524;17.580;2023-08-24T09:25:48;1.88;;;0.90;;
50739;SDS011;36704;52.524;17.580;2023-08-24T09:28:34;3.20;;;0.98;;
50739;SDS011;36704;52.524;17.580;2023-08-24T09:31:22;0.93;;;0.80;;
50739;SDS011;36704;52.524;17.580;2023-08-24T09:34:09;2.38;;;1.15;;
50739;SDS011;36704;52.524;17.580;2023-08-24T09:36:55;2.30;;;0.90;;
50739;SDS011;36704;52.524;17.580;2023-08-24T09:39:41;3.50;;;0.80;;
50739;SDS011;36704;52.524;17.580;2023-08-24T09:42:28;1.65;;;0.95;;
50739;SDS011;36704;52.524;17.580;2023-08-24T09:45:14;2.35;;;0.93;;
50739;SDS011;36704;52.524;17.580;2023-08-24T09:48:02;2.88;;;1.02;;
50739;SDS011;36704;52.524;17.580;2023-08-24T09:50:49;18.45;;;1.80;;
50739;SDS011;36704;52.524;17.580;2023-08-24T09:53:36;2.03;;;1.00;;
50739;SDS011;36704;52.524;17.580;2023-08-24T09:56:25;2.33;;;1.00;;
50739;SDS011;36704;52.524;17.580;2023-08-24T09:59:17;2.42;;;0.80;;
50739;SDS011;36704;52.524;17.580;2023-08-24T10:05:21;1.83;;;0.70;;
50739;SDS011;36704;52.524;17.580;2023-08-24T10:08:12;2.50;;;0.90;;
50739;SDS011;36704;52.524;17.580;2023-08-24T10:10:59;3.00;;;0.80;;
50739;SDS011;36704;52.524;17.580;2023-08-24T10:13:58;1.25;;;0.75;;
50739;SDS011;36704;52.524;17.580;2023-08-24T10:16:48;5.18;;;1.05;;
50739;SDS011;36704;52.524;17.580;2023-08-24T10:19:35;1.95;;;0.80;;
50739;SDS011;36704;52.524;17.580;2023-08-24T10:22:21;1.40;;;0.85;;
50739;SDS011;36704;52.524;17.580;2023-08-24T10:25:08;1.05;;;0.77;;
50739;SDS011;36704;52.524;17.580;2023-08-24T10:27:55;1.63;;;0.90;;
50739;SDS011;36704;52.524;17.580;2023-08-24T10:30:41;1.38;;;0.80;;
50739;SDS011;36704;52.524;17.580;2023-08-24T10:33:29;6.47;;;0.90;;
50739;SDS011;36704;52.524;17.580;2023-08-24T10:36:18;1.90;;;0.87;;
50739;SDS011;36704;52.524;17.580;2023-08-24T10:39:04;3.10;;;1.00;;
50739;SDS011;36704;52.524;17.580;2023-08-24T10:41:52;3.03;;;0.90;;
50739;SDS011;36704;52.524;17.580;2023-08-24T10:44:40;2.80;;;0.80;;
50739;SDS011;36704;52.524;17.580;2023-08-24T10:47:30;1.33;;;0.82;;
50739;SDS011;36704;52.524;17.580;2023-08-24T10:50:32;1.95;;;0.98;;
50739;SDS011;36704;52.524;17.580;2023-08-24T10:53:36;0.98;;;0.75;;
50739;SDS011;36704;52.524;17.580;2023-08-24T10:56:30;2.65;;;1.10;;
50739;SDS011;36704;52.524;17.580;2023-08-24T10:59:25;3.53;;;0.93;;
50739;SDS011;36704;52.524;17.580;2023-08-24T11:02:26;2.83;;;1.05;;
50739;SDS011;36704;52.524;17.580;2023-08-24T11:07:59;1.75;;;0.75;;
50739;SDS011;36704;52.524;17.580;2023-08-24T11:10:46;2.28;;;0.90;;
50739;SDS011;36704;52.524;17.580;2023-08-24T11:13:33;1.38;;;0.98;;
50739;SDS011;36704;52.524;17.580;2023-08-24T11:16:38;1.85;;;1.20;;
50739;SDS011;36704;52.524;17.580;2023-08-24T11:19:25;2.20;;;0.98;;
50739;SDS011;36704;52.524;17.580;2023-08-24T11:22:11;4.15;;;1.38;;
50739;SDS011;36704;52.524;17.580;2023-08-24T11:24:57;2.13;;;1.15;;
50739;SDS011;36704;52.524;17.580;2023-08-24T11:27:42;1.85;;;1.10;;
50739;SDS011;36704;52.524;17.580;2023-08-24T11:30:31;2.28;;;1.10;;
50739;SDS011;36704;52.524;17.580;2023-08-24T11:33:33;2.92;;;1.13;;
50739;SDS011;36704;52.524;17.580;2023-08-24T11:36:19;2.35;;;1.10;;
50739;SDS011;36704;52.524;17.580;2023-08-24T11:39:05;1.55;;;1.10;;
50739;SDS011;36704;52.524;17.580;2023-08-24T11:41:59;1.85;;;1.13;;
50739;SDS011;36704;52.524;17.580;2023-08-24T11:44:47;2.60;;;1.02;;
50739;SDS011;36704;52.524;17.580;2023-08-24T11:47:35;1.35;;;1.05;;
50739;SDS011;36704;52.524;17.580;2023-08-24T11:50:22;1.08;;;0.90;;
50739;SDS011;36704;52.524;17.580;2023-08-24T11:53:09;1.77;;;1.02;;
50739;SDS011;36704;52.524;17.580;2023-08-24T11:55:54;2.00;;;1.15;;
50739;SDS011;36704;52.524;17.580;2023-08-24T11:58:50;2.40;;;1.08;;
50739;SDS011;36704;52.524;17.580;2023-08-24T12:01:36;6.18;;;1.20;;
50739;SDS011;36704;52.524;17.580;2023-08-24T12:04:22;3.60;;;1.05;;
50739;SDS011;36704;52.524;17.580;2023-08-24T12:07:10;2.50;;;1.13;;
50739;SDS011;36704;52.524;17.580;2023-08-24T12:16:05;2.10;;;1.05;;
50739;SDS011;36704;52.524;17.580;2023-08-24T12:18:52;2.00;;;1.10;;
50739;SDS011;36704;52.524;17.580;2023-08-24T12:21:43;1.95;;;1.42;;
50739;SDS011;36704;52.524;17.580;2023-08-24T12:24:29;1.98;;;1.20;;
50739;SDS011;36704;52.524;17.580;2023-08-24T12:27:18;3.38;;;1.10;;
50739;SDS011;36704;52.524;17.580;2023-08-24T12:36:07;1.90;;;1.23;;
50739;SDS011;36704;52.524;17.580;2023-08-24T12:38:53;2.58;;;1.17;;
50739;SDS011;36704;52.524;17.580;2023-08-24T12:41:39;4.50;;;1.00;;
50739;SDS011;36704;52.524;17.580;2023-08-24T12:44:25;3.70;;;1.05;;
50739;SDS011;36704;52.524;17.580;2023-08-24T12:47:11;2.47;;;1.20;;
50739;SDS011;36704;52.524;17.580;2023-08-24T12:49:56;2.67;;;1.50;;
50739;SDS011;36704;52.524;17.580;2023-08-24T12:52:42;2.35;;;1.20;;
50739;SDS011;36704;52.524;17.580;2023-08-24T12:55:28;2.42;;;1.42;;
50739;SDS011;36704;52.524;17.580;2023-08-24T12:58:14;2.90;;;1.20;;
50739;SDS011;36704;52.524;17.580;2023-08-24T13:01:00;3.05;;;1.20;;
50739;SDS011;36704;52.524;17.580;2023-08-24T13:03:47;2.67;;;1.35;;
50739;SDS011;36704;52.524;17.580;2023-08-24T13:06:34;1.70;;;1.10;;
50739;SDS011;36704;52.524;17.580;2023-08-24T13:09:20;4.25;;;1.40;;
50739;SDS011;36704;52.524;17.580;2023-08-24T13:12:06;3.80;;;1.33;;
50739;SDS011;36704;52.524;17.580;2023-08-24T13:18:01;3.90;;;1.60;;
50739;SDS011;36704;52.524;17.580;2023-08-24T13:20:46;2.95;;;1.35;;
50739;SDS011;36704;52.524;17.580;2023-08-24T13:23:32;3.88;;;1.90;;
50739;SDS011;36704;52.524;17.580;2023-08-24T13:26:20;2.78;;;1.30;;
50739;SDS011;36704;52.524;17.580;2023-08-24T13:29:06;10.23;;;1.77;;
50739;SDS011;36704;52.524;17.580;2023-08-24T13:31:52;4.75;;;1.30;;
50739;SDS011;36704;52.524;17.580;2023-08-24T13:34:38;3.05;;;1.45;;
50739;SDS011;36704;52.524;17.580;2023-08-24T13:37:24;3.90;;;1.63;;
50739;SDS011;36704;52.524;17.580;2023-08-24T13:40:09;3.17;;;1.40;;
50739;SDS011;36704;52.524;17.580;2023-08-24T13:42:55;3.75;;;1.63;;
50739;SDS011;36704;52.524;17.580;2023-08-24T13:45:41;6.22;;;1.80;;
50739;SDS011;36704;52.524;17.580;2023-08-24T13:48:27;5.22;;;1.60;;
50739;SDS011;36704;52.524;17.580;2023-08-24T13:51:14;4.00;;;1.33;;
50739;SDS011;36704;52.524;17.580;2023-08-24T13:54:01;3.25;;;2.05;;
50739;SDS011;36704;52.524;17.580;2023-08-24T13:56:47;5.28;;;1.75;;
50739;SDS011;36704;52.524;17.580;2023-08-24T13:59:34;3.35;;;1.55;;
50739;SDS011;36704;52.524;17.580;2023-08-24T14:02:20;3.20;;;1.50;;
50739;SDS011;36704;52.524;17.580;2023-08-24T14:05:07;4.35;;;1.50;;
50739;SDS011;36704;52.524;17.580;2023-08-24T14:07:55;4.32;;;1.95;;
50739;SDS011;36704;52.524;17.580;2023-08-24T14:10:41;3.35;;;1.58;;
50739;SDS011;36704;52.524;17.580;2023-08-24T14:13:27;3.22;;;2.00;;
50739;SDS011;36704;52.524;17.580;2023-08-24T14:16:13;3.47;;;1.70;;
50739;SDS011;36704;52.524;17.580;2023-08-24T14:18:58;2.92;;;1.70;;
50739;SDS011;36704;52.524;17.580;2023-08-24T14:21:46;9.02;;;3.38;;
50739;SDS011;36704;52.524;17.580;2023-08-24T14:24:31;3.42;;;1.80;;
50739;SDS011;36704;52.524;17.580;2023-08-24T14:27:20;5.22;;;2.00;;
50739;SDS011;36704;52.524;17.580;2023-08-24T14:30:06;5.68;;;2.50;;
50739;SDS011;36704;52.524;17.580;2023-08-24T14:32:52;3.70;;;1.83;;
50739;SDS011;36704;52.524;17.580;2023-08-24T14:35:38;4.60;;;1.90;;
50739;SDS011;36704;52.524;17.580;2023-08-24T14:38:24;4.35;;;1.85;;
50739;SDS011;36704;52.524;17.580;2023-08-24T14:41:10;3.15;;;1.90;;
50739;SDS011;36704;52.524;17.580;2023-08-24T14:43:57;3.63;;;1.70;;
50739;SDS011;36704;52.524;17.580;2023-08-24T14:46:43;5.93;;;2.38;;
50739;SDS011;36704;52.524;17.580;2023-08-24T14:49:32;7.35;;;2.25;;
50739;SDS011;36704;52.524;17.580;2023-08-24T14:52:18;4.10;;;1.70;;
50739;SDS011;36704;52.524;17.580;2023-08-24T14:55:04;4.40;;;1.77;;
50739;SDS011;36704;52.524;17.580;2023-08-24T14:57:51;2.03;;;1.73;;
50739;SDS011;36704;52.524;17.580;2023-08-24T15:00:39;5.63;;;2.10;;
50739;SDS011;36704;52.524;17.580;2023-08-24T15:03:25;3.83;;;1.88;;
50739;SDS011;36704;52.524;17.580;2023-08-24T15:06:12;3.65;;;1.88;;
50739;SDS011;36704;52.524;17.580;2023-08-24T15:08:58;3.60;;;1.90;;
50739;SDS011;36704;52.524;17.580;2023-08-24T15:11:44;3.60;;;1.60;;
50739;SDS011;36704;52.524;17.580;2023-08-24T15:14:30;3.95;;;1.55;;
50739;SDS011;36704;52.524;17.580;2023-08-24T15:17:17;4.50;;;1.77;;
50739;SDS011;36704;52.524;17.580;2023-08-24T15:20:06;6.50;;;2.03;;
50739;SDS011;36704;52.524;17.580;2023-08-24T15:22:52;4.90;;;1.77;;
50739;SDS011;36704;52.524;17.580;2023-08-24T15:25:38;4.25;;;2.05;;
50739;SDS011;36704;52.524;17.580;2023-08-24T15:28:24;3.55;;;1.58;;
50739;SDS011;36704;52.524;17.580;2023-08-24T15:31:10;3.55;;;1.65;;
50739;SDS011;36704;52.524;17.580;2023-08-24T15:33:56;2.53;;;1.75;;
50739;SDS011;36704;52.524;17.580;2023-08-24T15:36:46;5.07;;;2.08;;
50739;SDS011;36704;52.524;17.580;2023-08-24T15:39:39;11.82;;;2.00;;
50739;SDS011;36704;52.524;17.580;2023-08-24T15:42:49;4.18;;;2.15;;
50739;SDS011;36704;52.524;17.580;2023-08-24T15:45:45;4.32;;;1.83;;
50739;SDS011;36704;52.524;17.580;2023-08-24T15:48:31;5.15;;;1.85;;
50739;SDS011;36704;52.524;17.580;2023-08-24T15:51:20;3.33;;;1.70;;
50739;SDS011;36704;52.524;17.580;2023-08-24T15:54:15;2.90;;;1.50;;
50739;SDS011;36704;52.524;17.580;2023-08-24T15:57:09;4.30;;;1.70;;
50739;SDS011;36704;52.524;17.580;2023-08-24T15:59:55;1.92;;;1.60;;
50739;SDS011;36704;52.524;17.580;2023-08-24T16:02:48;2.60;;;1.70;;
50739;SDS011;36704;52.524;17.580;2023-08-24T16:05:37;3.17;;;1.75;;
50739;SDS011;36704;52.524;17.580;2023-08-24T16:08:29;3.83;;;1.70;;
50739;SDS011;36704;52.524;17.580;2023-08-24T16:11:17;2.70;;;2.00;;
50739;SDS011;36704;52.524;17.580;2023-08-24T16:14:06;6.25;;;2.03;;
50739;SDS011;36704;52.524;17.580;2023-08-24T16:16:56;5.32;;;1.83;;
50739;SDS011;36704;52.524;17.580;2023-08-24T16:19:45;3.80;;;1.85;;
50739;SDS011;36704;52.524;17.580;2023-08-24T16:22:31;3.08;;;1.65;;
50739;SDS011;36704;52.524;17.580;2023-08-24T16:25:18;5.72;;;1.85;;
50739;SDS011;36704;52.524;17.580;2023-08-24T16:28:06;3.58;;;1.90;;
50739;SDS011;36704;52.524;17.580;2023-08-24T16:30:52;3.33;;;1.80;;
50739;SDS011;36704;52.524;17.580;2023-08-24T16:33:38;3.95;;;1.80;;
50739;SDS011;36704;52.524;17.580;2023-08-24T16:36:26;5.78;;;1.90;;
50739;SDS011;36704;52.524;17.580;2023-08-24T16:39:11;3.92;;;1.70;;
50739;SDS011;36704;52.524;17.580;2023-08-24T16:41:57;6.70;;;2.13;;
50739;SDS011;36704;52.524;17.580;2023-08-24T16:44:43;6.00;;;1.80;;
50739;SDS011;36704;52.524;17.580;2023-08-24T16:47:32;5.00;;;2.10;;
50739;SDS011;36704;52.524;17.580;2023-08-24T16:50:18;5.10;;;2.10;;
50739;SDS011;36704;52.524;17.580;2023-08-24T16:53:05;4.90;;;1.90;;
50739;SDS011;36704;52.524;17.580;2023-08-24T16:55:53;4.68;;;1.85;;
50739;SDS011;36704;52.524;17.580;2023-08-24T16:58:45;3.72;;;1.67;;